sensor_id;sensor_type;location;lat;lon;timestamp;P1;durP1;ratioP1;P2;durP2;ratioP2
79693;SDS011;69165;52.714;13.200;2023-05-10T05:00:21;13.40;;;6.73;;
79693;SDS011;69165;52.714;13.200;2023-05-10T05:02:23;14.80;;;6.90;;
79693;SDS011;69165;52.714;13.200;2023-05-10T05:04:24;20.63;;;6.67;;
79693;SDS011;69165;52.714;13.200;2023-05-10T05:06:26;21.90;;;6.20;;
79693;SDS011;69165;52.714;13.200;2023-05-10T05:08:28;14.10;;;6.83;;
79693;SDS011;69165;52.714;13.200;2023-05-10T05:10:30;14.30;;;6.00;;
79693;SDS011;69165;52.714;13.200;2023-05-10T05:12:32;14.33;;;6.23;;
79693;SDS011;69165;52.714;13.200;2023-05-10T05:14:33;10.60;;;7.13;;
79693;SDS011;69165;52.714;13.200;2023-05-10T05:16:35;11.27;;;7.20;;
79693;SDS011;69165;52.714;13.200;2023-05-10T05:18:37;9.60;;;6.03;;
79693;SDS011;69165;52.714;13.200;2023-05-10T05:20:39;19.30;;;5.90;;
79693;SDS011;69165;52.714;13.200;2023-05-10T05:22:40;15.80;;;6.47;;
79693;SDS011;69165;52.714;13.200;2023-05-10T05:24:43;19.10;;;6.47;;
79693;SDS011;69165;52.714;13.200;2023-05-10T05:26:44;12.00;;;7.67;;
79693;SDS011;69165;52.714;13.200;2023-05-10T05:28:47;16.47;;;6.60;;
79693;SDS011;69165;52.714;13.200;2023-05-10T05:30:49;13.23;;;6.17;;
79693;SDS011;69165;52.714;13.200;2023-05-10T05:32:51;7.93;;;5.70;;
79693;SDS011;69165;52.714;13.200;2023-05-10T05:34:52;13.90;;;6.40;;
79693;SDS011;69165;52.714;13.200;2023-05-10T05:36:55;10.80;;;6.63;;
79693;SDS011;69165;52.714;13.200;2023-05-10T05:38:57;8.60;;;5.80;;
79693;SDS011;69165;52.714;13.200;2023-05-10T05:40:58;13.20;;;5.97;;
79693;SDS011;69165;52.714;13.200;2023-05-10T05:42:59;14.50;;;7.63;;
79693;SDS011;69165;52.714;13.200;2023-05-10T05:45:01;14.93;;;6.43;;
79693;SDS011;69165;52.714;13.200;2023-05-10T05:47:03;7.70;;;5.83;;
79693;SDS011;69165;52.714;13.200;2023-05-10T05:49:04;10.73;;;5.53;;
79693;SDS011;69165;52.714;13.200;2023-05-10T05:51:07;9.67;;;6.87;;
79693;SDS011;69165;52.714;13.200;2023-05-10T05:53:08;7.10;;;5.67;;
79693;SDS011;69165;52.714;13.200;2023-05-10T05:55:11;9.27;;;5.70;;
79693;SDS011;69165;52.714;13.200;2023-05-10T05:57:12;7.90;;;5.70;;
79693;SDS011;69165;52.714;13.200;2023-05-10T05:59:15;11.50;;;5.80;;
79693;SDS011;69165;52.714;13.200;2023-05-10T06:01:16;10.10;;;5.33;;
79693;SDS011;69165;52.714;13.200;2023-05-10T06:03:18;8.57;;;5.57;;
79693;SDS011;69165;52.714;13.200;2023-05-10T06:05:19;15.53;;;5.20;;
79693;SDS011;69165;52.714;13.200;2023-05-10T06:07:21;11.43;;;5.87;;
79693;SDS011;69165;52.714;13.200;2023-05-10T06:09:23;21.33;;;6.10;;
79693;SDS011;69165;52.714;13.200;2023-05-10T06:11:25;5.60;;;4.83;;
79693;SDS011;69165;52.714;13.200;2023-05-10T06:13:27;20.33;;;6.23;;
79693;SDS011;69165;52.714;13.200;2023-05-10T06:15:29;7.10;;;5.70;;
79693;SDS011;69165;52.714;13.200;2023-05-10T06:17:31;9.77;;;5.30;;
79693;SDS011;69165;52.714;13.200;2023-05-10T06:19:32;7.97;;;5.00;;
79693;SDS011;69165;52.714;13.200;2023-05-10T06:21:34;7.57;;;4.87;;
79693;SDS011;69165;52.714;13.200;2023-05-10T06:23:35;10.20;;;5.20;;
79693;SDS011;69165;52.714;13.200;2023-05-10T06:25:37;9.40;;;4.53;;
79693;SDS011;69165;52.714;13.200;2023-05-10T06:27:39;6.80;;;4.73;;
79693;SDS011;69165;52.714;13.200;2023-05-10T06:29:41;16.17;;;4.90;;
79693;SDS011;69165;52.714;13.200;2023-05-10T06:31:43;6.10;;;4.90;;
79693;SDS011;69165;52.714;13.200;2023-05-10T06:33:45;5.17;;;4.10;;
79693;SDS011;69165;52.714;13.200;2023-05-10T06:35:47;7.60;;;5.37;;
79693;SDS011;69165;52.714;13.200;2023-05-10T06:37:48;7.20;;;5.40;;
79693;SDS011;69165;52.714;13.200;2023-05-10T06:39:50;10.50;;;5.30;;
79693;SDS011;69165;52.714;13.200;2023-05-10T06:41:52;8.67;;;4.37;;
79693;SDS011;69165;52.714;13.200;2023-05-10T06:43:54;5.53;;;4.50;;
79693;SDS011;69165;52.714;13.200;2023-05-10T06:45:55;15.57;;;4.60;;
79693;SDS011;69165;52.714;13.200;2023-05-10T06:47:57;6.20;;;4.67;;
79693;SDS011;69165;52.714;13.200;2023-05-10T06:49:59;11.30;;;4.70;;
79693;SDS011;69165;52.714;13.200;2023-05-10T06:52:01;6.83;;;4.53;;
79693;SDS011;69165;52.714;13.200;2023-05-10T06:54:03;4.57;;;4.20;;
79693;SDS011;69165;52.714;13.200;2023-05-10T06:56:05;5.33;;;4.40;;
79693;SDS011;69165;52.714;13.200;2023-05-10T06:58:07;7.73;;;4.40;;
79693;SDS011;69165;52.714;13.200;2023-05-10T07:00:09;7.93;;;5.23;;
79693;SDS011;69165;52.714;13.200;2023-05-10T07:14:16;4.83;;;4.27;;
79693;SDS011;69165;52.714;13.200;2023-05-10T07:16:18;7.40;;;3.53;;
79693;SDS011;69165;52.714;13.200;2023-05-10T07:18:19;12.40;;;4.47;;
79693;SDS011;69165;52.714;13.200;2023-05-10T07:20:21;6.20;;;3.90;;
79693;SDS011;69165;52.714;13.200;2023-05-10T07:22:23;5.27;;;4.73;;
79693;SDS011;69165;52.714;13.200;2023-05-10T07:26:00;7.80;;;4.53;;
79693;SDS011;69165;52.714;13.200;2023-05-10T07:28:02;10.73;;;3.83;;
79693;SDS011;69165;52.714;13.200;2023-05-10T07:30:04;5.20;;;4.50;;
79693;SDS011;69165;52.714;13.200;2023-05-10T07:32:06;7.73;;;3.83;;
79693;SDS011;69165;52.714;13.200;2023-05-10T07:34:08;7.93;;;4.83;;
79693;SDS011;69165;52.714;13.200;2023-05-10T07:36:09;4.33;;;3.83;;
79693;SDS011;69165;52.714;13.200;2023-05-10T07:38:11;14.03;;;3.50;;
79693;SDS011;69165;52.714;13.200;2023-05-10T07:40:13;5.23;;;4.73;;
79693;SDS011;69165;52.714;13.200;2023-05-10T07:42:14;9.63;;;4.37;;
79693;SDS011;69165;52.714;13.200;2023-05-10T07:44:16;6.80;;;4.30;;
79693;SDS011;69165;52.714;13.200;2023-05-10T07:46:17;4.83;;;4.43;;
79693;SDS011;69165;52.714;13.200;2023-05-10T07:48:19;9.23;;;4.50;;
79693;SDS011;69165;52.714;13.200;2023-05-10T07:50:21;10.50;;;3.83;;
79693;SDS011;69165;52.714;13.200;2023-05-10T07:52:22;6.53;;;3.87;;
79693;SDS011;69165;52.714;13.200;2023-05-10T07:54:24;5.47;;;4.80;;
79693;SDS011;69165;52.714;13.200;2023-05-10T07:56:26;7.53;;;5.37;;
79693;SDS011;69165;52.714;13.200;2023-05-10T07:58:27;5.17;;;4.77;;
79693;SDS011;69165;52.714;13.200;2023-05-10T08:00:30;15.67;;;4.77;;
79693;SDS011;69165;52.714;13.200;2023-05-10T08:02:33;10.13;;;4.53;;
79693;SDS011;69165;52.714;13.200;2023-05-10T08:04:34;6.60;;;5.17;;
79693;SDS011;69165;52.714;13.200;2023-05-10T08:06:35;12.00;;;4.63;;
79693;SDS011;69165;52.714;13.200;2023-05-10T08:08:38;6.13;;;4.60;;
79693;SDS011;69165;52.714;13.200;2023-05-10T08:10:39;7.97;;;4.60;;
79693;SDS011;69165;52.714;13.200;2023-05-10T08:12:41;9.20;;;4.30;;
79693;SDS011;69165;52.714;13.200;2023-05-10T08:14:43;5.83;;;4.50;;
79693;SDS011;69165;52.714;13.200;2023-05-10T08:16:44;13.57;;;4.33;;
79693;SDS011;69165;52.714;13.200;2023-05-10T08:18:46;3.80;;;3.50;;
79693;SDS011;69165;52.714;13.200;2023-05-10T08:20:47;5.60;;;5.00;;
79693;SDS011;69165;52.714;13.200;2023-05-10T08:22:49;6.07;;;4.27;;
79693;SDS011;69165;52.714;13.200;2023-05-10T08:25:50;14.73;;;4.77;;
79693;SDS011;69165;52.714;13.200;2023-05-10T08:29:50;7.73;;;4.20;;
79693;SDS011;69165;52.714;13.200;2023-05-10T08:31:52;7.60;;;4.80;;
79693;SDS011;69165;52.714;13.200;2023-05-10T08:33:53;4.57;;;3.97;;
79693;SDS011;69165;52.714;13.200;2023-05-10T08:35:55;7.10;;;4.43;;
79693;SDS011;69165;52.714;13.200;2023-05-10T08:37:57;3.97;;;3.67;;
79693;SDS011;69165;52.714;13.200;2023-05-10T08:39:58;5.50;;;3.80;;
79693;SDS011;69165;52.714;13.200;2023-05-10T08:42:01;15.00;;;4.30;;
79693;SDS011;69165;52.714;13.200;2023-05-10T08:44:02;4.60;;;4.20;;
79693;SDS011;69165;52.714;13.200;2023-05-10T08:46:03;9.23;;;4.90;;
79693;SDS011;69165;52.714;13.200;2023-05-10T08:48:06;6.97;;;5.00;;
79693;SDS011;69165;52.714;13.200;2023-05-10T08:50:07;4.20;;;3.83;;
79693;SDS011;69165;52.714;13.200;2023-05-10T08:52:10;5.03;;;4.33;;
79693;SDS011;69165;52.714;13.200;2023-05-10T08:54:12;8.43;;;4.60;;
79693;SDS011;69165;52.714;13.200;2023-05-10T08:56:15;9.90;;;4.60;;
79693;SDS011;69165;52.714;13.200;2023-05-10T08:58:15;8.80;;;4.97;;
79693;SDS011;69165;52.714;13.200;2023-05-10T09:00:17;9.10;;;4.10;;
79693;SDS011;69165;52.714;13.200;2023-05-10T09:02:19;8.73;;;4.40;;
79693;SDS011;69165;52.714;13.200;2023-05-10T09:04:21;9.30;;;5.20;;
79693;SDS011;69165;52.714;13.200;2023-05-10T09:06:22;4.20;;;3.80;;
79693;SDS011;69165;52.714;13.200;2023-05-10T09:08:24;4.73;;;4.33;;
79693;SDS011;69165;52.714;13.200;2023-05-10T09:10:26;11.13;;;4.50;;
79693;SDS011;69165;52.714;13.200;2023-05-10T09:12:28;5.37;;;4.60;;
79693;SDS011;69165;52.714;13.200;2023-05-10T09:14:30;7.70;;;3.60;;
79693;SDS011;69165;52.714;13.200;2023-05-10T09:16:31;7.70;;;4.30;;
79693;SDS011;69165;52.714;13.200;2023-05-10T09:18:34;6.83;;;4.60;;
79693;SDS011;69165;52.714;13.200;2023-05-10T09:20:35;12.23;;;3.80;;
79693;SDS011;69165;52.714;13.200;2023-05-10T09:22:37;7.07;;;4.50;;
79693;SDS011;69165;52.714;13.200;2023-05-10T09:24:38;9.07;;;4.47;;
79693;SDS011;69165;52.714;13.200;2023-05-10T09:26:46;5.60;;;4.13;;
79693;SDS011;69165;52.714;13.200;2023-05-10T09:28:57;6.13;;;4.70;;
79693;SDS011;69165;52.714;13.200;2023-05-10T09:31:00;5.43;;;4.90;;
79693;SDS011;69165;52.714;13.200;2023-05-10T09:33:02;5.57;;;4.03;;
79693;SDS011;69165;52.714;13.200;2023-05-10T09:35:06;13.47;;;4.57;;
79693;SDS011;69165;52.714;13.200;2023-05-10T09:37:09;6.50;;;4.67;;
79693;SDS011;69165;52.714;13.200;2023-05-10T09:39:11;15.63;;;4.73;;
79693;SDS011;69165;52.714;13.200;2023-05-10T09:41:17;6.33;;;4.60;;
79693;SDS011;69165;52.714;13.200;2023-05-10T09:43:20;7.23;;;4.40;;
79693;SDS011;69165;52.714;13.200;2023-05-10T09:45:23;4.43;;;4.00;;
79693;SDS011;69165;52.714;13.200;2023-05-10T09:47:24;14.50;;;4.87;;
79693;SDS011;69165;52.714;13.200;2023-05-10T09:49:26;4.50;;;4.10;;
79693;SDS011;69165;52.714;13.200;2023-05-10T09:51:28;13.10;;;4.70;;
79693;SDS011;69165;52.714;13.200;2023-05-10T09:53:29;9.50;;;4.17;;
79693;SDS011;69165;52.714;13.200;2023-05-10T09:55:39;6.57;;;4.60;;
79693;SDS011;69165;52.714;13.200;2023-05-10T09:57:42;8.60;;;4.73;;
79693;SDS011;69165;52.714;13.200;2023-05-10T09:59:45;5.13;;;4.63;;
79693;SDS011;69165;52.714;13.200;2023-05-10T10:01:50;6.80;;;4.40;;
79693;SDS011;69165;52.714;13.200;2023-05-10T10:03:51;4.67;;;4.23;;
79693;SDS011;69165;52.714;13.200;2023-05-10T10:05:52;7.40;;;4.60;;
79693;SDS011;69165;52.714;13.200;2023-05-10T10:07:54;16.23;;;4.13;;
79693;SDS011;69165;52.714;13.200;2023-05-10T10:09:55;5.00;;;4.50;;
79693;SDS011;69165;52.714;13.200;2023-05-10T10:11:57;4.27;;;3.97;;
79693;SDS011;69165;52.714;13.200;2023-05-10T10:14:46;8.13;;;3.80;;
79693;SDS011;69165;52.714;13.200;2023-05-10T10:16:48;6.63;;;3.80;;
79693;SDS011;69165;52.714;13.200;2023-05-10T10:18:49;16.83;;;5.10;;
79693;SDS011;69165;52.714;13.200;2023-05-10T10:20:51;4.47;;;3.80;;
79693;SDS011;69165;52.714;13.200;2023-05-10T10:22:52;4.83;;;4.43;;
79693;SDS011;69165;52.714;13.200;2023-05-10T10:24:54;12.00;;;4.27;;
79693;SDS011;69165;52.714;13.200;2023-05-10T10:26:59;9.50;;;4.37;;
79693;SDS011;69165;52.714;13.200;2023-05-10T10:29:04;5.43;;;4.83;;
79693;SDS011;69165;52.714;13.200;2023-05-10T10:31:21;4.23;;;3.83;;
79693;SDS011;69165;52.714;13.200;2023-05-10T10:35:45;11.73;;;4.40;;
79693;SDS011;69165;52.714;13.200;2023-05-10T10:37:47;5.83;;;3.73;;
79693;SDS011;69165;52.714;13.200;2023-05-10T10:39:50;5.17;;;4.57;;
79693;SDS011;69165;52.714;13.200;2023-05-10T10:41:54;6.63;;;4.20;;
79693;SDS011;69165;52.714;13.200;2023-05-10T11:11:24;5.20;;;4.13;;
79693;SDS011;69165;52.714;13.200;2023-05-10T11:14:06;7.00;;;4.10;;
79693;SDS011;69165;52.714;13.200;2023-05-10T20:59:03;12.27;;;8.20;;
